Time;durP1;ratioP1;P1;durP2;ratioP2;P2;SDS_P1;SDS_P2;PMS_P1;PMS_P2;Temp;Humidity;BMP_temperature;BMP_pressure;BME280_temperature;BME280_humidity;BME280_pressure;Samples;Min_cycle;Max_cycle;Signal;HPM_P1;HPM_P2
2022/09/12 00:01:55;;;;;;;6.63;5.67;;;13.80;99.90;;;;;;5034373;28;20206;-59
2022/09/12 00:04:21;;;;;;;7.07;6.10;;;13.70;99.90;;;;;;5033973;28;20206;-57
2022/09/12 00:06:48;;;;;;;7.30;6.40;;;13.70;99.90;;;;;;5033961;28;20226;-58
2022/09/12 00:09:16;;;;;;;7.33;6.47;;;13.60;99.90;;;;;;5034300;28;20264;-59
2022/09/12 00:11:45;;;;;;;6.93;6.30;;;13.60;99.90;;;;;;5034242;28;20259;-59
2022/09/12 00:14:14;;;;;;;7.47;5.97;;;13.60;99.90;;;;;;5033933;28;20256;-58
2022/09/12 00:16:41;;;;;;;7.57;6.87;;;13.60;99.90;;;;;;5033952;28;20321;-58
2022/09/12 00:19:09;;;;;;;7.43;6.17;;;13.60;99.90;;;;;;5034363;28;20580;-59
2022/09/12 00:21:37;;;;;;;7.63;6.67;;;13.60;99.90;;;;;;5033861;28;20264;-59
2022/09/12 00:24:04;;;;;;;9.27;6.43;;;13.60;99.90;;;;;;5033711;28;20211;-59
2022/09/12 00:26:32;;;;;;;11.53;6.97;;;13.60;99.90;;;;;;5033852;28;20285;-59
2022/09/12 00:28:59;;;;;;;8.63;7.17;;;13.60;99.90;;;;;;5033959;28;20218;-59
2022/09/12 00:31:27;;;;;;;7.93;7.10;;;13.60;99.90;;;;;;5033874;28;20244;-59
2022/09/12 00:33:56;;;;;;;7.13;6.43;;;13.60;99.90;;;;;;5033449;28;20222;-59
2022/09/12 00:36:25;;;;;;;6.23;5.70;;;13.60;99.90;;;;;;5033707;28;20656;-58
2022/09/12 00:38:53;;;;;;;7.40;6.63;;;13.70;99.90;;;;;;5033573;28;20690;-59
2022/09/12 00:41:24;;;;;;;6.77;6.07;;;13.60;99.90;;;;;;5033532;28;20275;-59
2022/09/12 00:43:53;;;;;;;8.00;6.40;;;13.70;99.90;;;;;;5033498;28;20206;-59
2022/09/12 00:46:31;;;;;;;7.67;6.30;;;13.70;99.90;;;;;;5033522;28;20226;-59
2022/09/12 00:49:02;;;;;;;7.07;6.43;;;13.70;99.90;;;;;;5034013;28;20209;-59
2022/09/12 00:51:32;;;;;;;6.93;6.33;;;13.70;99.90;;;;;;5033335;28;20610;-59
2022/09/12 00:54:02;;;;;;;7.00;6.30;;;13.60;99.90;;;;;;5033610;28;20206;-59
2022/09/12 00:56:29;;;;;;;7.17;6.43;;;13.60;99.90;;;;;;5033625;28;20230;-59
2022/09/12 00:59:02;;;;;;;6.70;6.00;;;13.60;99.90;;;;;;5033526;28;20209;-59
2022/09/12 01:01:29;;;;;;;6.60;5.90;;;13.60;99.90;;;;;;5033394;28;20214;-59
2022/09/12 01:03:55;;;;;;;9.07;5.80;;;13.60;99.90;;;;;;5033292;28;20674;-59
2022/09/12 01:06:27;;;;;;;6.87;6.17;;;13.60;99.90;;;;;;5033444;28;20241;-59
2022/09/12 01:08:55;;;;;;;7.80;6.17;;;13.50;99.90;;;;;;5033178;28;20576;-60
2022/09/12 01:11:22;;;;;;;7.53;6.33;;;13.50;99.90;;;;;;5033397;28;20576;-59
2022/09/12 01:13:50;;;;;;;6.47;5.87;;;13.50;99.90;;;;;;5033268;28;20272;-59
2022/09/12 01:16:19;;;;;;;7.60;5.90;;;13.40;99.90;;;;;;5033027;28;20233;-58
2022/09/12 01:18:57;;;;;;;7.27;6.53;;;13.50;99.90;;;;;;5033117;28;20213;-58
2022/09/12 01:21:36;;;;;;;7.67;6.77;;;13.40;99.90;;;;;;5033153;28;20217;-59
2022/09/12 01:24:42;;;;;;;7.23;6.27;;;13.40;99.90;;;;;;5032727;28;20206;-59
2022/09/12 01:27:36;;;;;;;7.10;6.10;;;13.40;99.90;;;;;;5032852;28;20230;-59
2022/09/12 01:30:20;;;;;;;7.77;7.07;;;13.30;99.90;;;;;;5032995;28;20673;-59
2022/09/12 01:33:10;;;;;;;7.43;6.73;;;13.30;99.90;;;;;;5033166;28;20210;-59
2022/09/12 01:35:47;;;;;;;8.10;6.40;;;13.30;99.90;;;;;;5032852;28;20238;-59
2022/09/12 01:38:22;;;;;;;8.27;7.33;;;13.30;99.90;;;;;;5032936;28;20233;-59
2022/09/12 01:40:58;;;;;;;10.20;7.10;;;13.30;99.90;;;;;;5032821;28;20268;-60
2022/09/12 01:43:34;;;;;;;8.27;6.90;;;13.30;99.90;;;;;;5032315;28;20568;-59
2022/09/12 01:46:10;;;;;;;9.67;7.27;;;13.30;99.90;;;;;;5032398;28;20220;-59
2022/09/12 01:48:40;;;;;;;6.93;6.23;;;13.30;99.90;;;;;;5032490;28;20256;-60
2022/09/12 01:51:13;;;;;;;8.50;6.40;;;13.30;99.90;;;;;;5032246;28;20253;-59
2022/09/12 01:53:44;;;;;;;11.00;6.17;;;13.30;99.90;;;;;;5032369;28;20260;-59
2022/09/12 01:56:21;;;;;;;8.23;6.23;;;13.20;99.90;;;;;;5032458;28;20222;-59
2022/09/12 01:58:52;;;;;;;7.50;5.53;;;13.20;99.90;;;;;;5032389;28;20201;-59
2022/09/12 02:01:24;;;;;;;8.80;7.53;;;13.20;99.90;;;;;;5032224;28;20203;-59
2022/09/12 02:04:00;;;;;;;8.50;6.90;;;13.20;99.90;;;;;;5031632;28;20210;-59
2022/09/12 02:06:32;;;;;;;10.87;7.60;;;13.10;99.90;;;;;;5032105;28;20723;-59
2022/09/12 02:09:03;;;;;;;8.53;7.73;;;13.20;99.90;;;;;;5032022;28;20600;-59
2022/09/12 02:11:33;;;;;;;8.27;7.47;;;13.10;99.90;;;;;;5031776;28;20217;-59
2022/09/12 02:14:04;;;;;;;8.90;7.83;;;13.10;99.90;;;;;;5031767;28;20739;-59
2022/09/12 02:16:36;;;;;;;9.07;7.53;;;13.00;99.90;;;;;;5032037;28;20283;-58
2022/09/12 02:19:08;;;;;;;7.73;7.03;;;13.00;99.90;;;;;;5031877;28;20559;-58
2022/09/12 02:21:39;;;;;;;8.70;7.80;;;13.00;99.90;;;;;;5032002;28;20264;-59
2022/09/12 02:24:10;;;;;;;8.27;7.33;;;13.00;99.90;;;;;;5031693;28;20263;-59
2022/09/12 02:26:47;;;;;;;9.03;7.90;;;13.00;99.90;;;;;;5031813;28;20253;-59
2022/09/12 02:29:14;;;;;;;8.13;7.33;;;12.90;99.90;;;;;;5031868;28;20205;-58
2022/09/12 02:31:46;;;;;;;8.37;7.47;;;12.90;99.90;;;;;;5031988;28;20224;-58
2022/09/12 02:34:31;;;;;;;7.90;6.93;;;12.90;99.90;;;;;;5031609;28;20296;-58
2022/09/12 02:37:07;;;;;;;8.40;7.53;;;12.90;99.90;;;;;;5031694;28;20233;-59
2022/09/12 02:39:34;;;;;;;7.70;6.77;;;12.80;99.90;;;;;;5032106;28;20292;-59
2022/09/12 02:42:03;;;;;;;7.77;6.87;;;12.80;99.90;;;;;;5031892;28;20692;-58
2022/09/12 02:44:31;;;;;;;8.20;7.40;;;12.70;99.90;;;;;;5032101;28;20203;-61
2022/09/12 02:47:04;;;;;;;8.07;7.27;;;12.70;99.90;;;;;;5031639;28;20229;-60
2022/09/12 02:49:30;;;;;;;7.83;7.03;;;12.70;99.90;;;;;;5031881;28;20206;-60
2022/09/12 02:51:58;;;;;;;8.70;7.83;;;12.60;99.90;;;;;;5031596;28;20694;-60
2022/09/12 02:54:26;;;;;;;10.57;8.03;;;12.60;99.90;;;;;;5031506;28;20210;-59
2022/09/12 02:56:52;;;;;;;8.73;7.83;;;12.60;99.90;;;;;;5031433;28;20234;-59
2022/09/12 02:59:22;;;;;;;10.07;8.80;;;12.60;99.90;;;;;;5031598;28;20268;-59
2022/09/12 03:02:05;;;;;;;10.20;8.97;;;12.70;99.90;;;;;;5031532;28;20213;-60
2022/09/12 03:04:57;;;;;;;10.37;7.80;;;12.70;99.90;;;;;;5031483;28;20625;-60
2022/09/12 03:07:39;;;;;;;8.20;7.40;;;12.70;99.90;;;;;;5031318;28;20710;-59
2022/09/12 03:10:11;;;;;;;8.33;7.43;;;12.70;99.90;;;;;;5031206;28;20260;-59
2022/09/12 03:12:52;;;;;;;8.23;7.20;;;12.70;99.90;;;;;;5031576;28;20211;-58
2022/09/12 03:15:33;;;;;;;10.63;7.67;;;12.60;99.90;;;;;;5031336;28;20208;-60
2022/09/12 03:18:13;;;;;;;8.67;7.87;;;12.60;99.90;;;;;;5034896;28;20234;-59
2022/09/12 03:20:49;;;;;;;8.00;7.20;;;12.60;99.90;;;;;;5034944;28;20190;-60
2022/09/12 03:23:26;;;;;;;12.57;11.23;;;12.60;99.90;;;;;;5034868;28;20240;-59
2022/09/12 03:25:59;;;;;;;9.23;8.33;;;12.50;99.90;;;;;;5035152;28;20210;-60
2022/09/12 03:28:26;;;;;;;9.00;7.67;;;12.50;99.90;;;;;;5034931;28;20210;-59
2022/09/12 03:30:55;;;;;;;8.07;7.27;;;12.50;99.90;;;;;;5034644;28;20202;-59
2022/09/12 03:33:24;;;;;;;8.47;7.57;;;12.50;99.90;;;;;;5034712;28;20297;-59
2022/09/12 03:35:52;;;;;;;10.50;7.97;;;12.50;99.90;;;;;;5034921;28;20210;-60
2022/09/12 03:38:19;;;;;;;8.30;7.40;;;12.40;99.90;;;;;;5034650;28;20226;-58
2022/09/12 03:40:46;;;;;;;8.77;7.87;;;12.40;99.90;;;;;;5034644;28;20272;-60
2022/09/12 03:43:13;;;;;;;8.70;7.87;;;12.40;99.90;;;;;;5034292;28;20297;-58
2022/09/12 03:45:39;;;;;;;8.90;8.00;;;12.40;99.90;;;;;;5034399;28;20221;-59
2022/09/12 03:48:06;;;;;;;11.70;10.50;;;12.40;99.90;;;;;;5034544;28;20230;-60
2022/09/12 03:50:35;;;;;;;9.63;8.63;;;12.40;99.90;;;;;;5034606;28;20214;-59
2022/09/12 03:53:02;;;;;;;8.33;7.53;;;12.40;99.90;;;;;;5034505;28;20209;-59
2022/09/12 03:55:28;;;;;;;8.47;7.63;;;12.50;99.90;;;;;;5034128;28;20206;-59
2022/09/12 03:57:55;;;;;;;10.93;7.97;;;12.50;99.90;;;;;;5034133;28;20265;-58
2022/09/12 04:00:23;;;;;;;8.37;7.57;;;12.40;99.90;;;;;;5034227;28;20209;-59
2022/09/12 04:02:54;;;;;;;11.43;7.73;;;12.40;99.90;;;;;;5034435;28;20213;-60
2022/09/12 04:05:21;;;;;;;10.37;8.07;;;12.40;99.90;;;;;;5034137;28;20292;-59
2022/09/12 04:07:49;;;;;;;10.13;8.33;;;12.40;99.90;;;;;;5034115;28;20230;-59
2022/09/12 04:10:16;;;;;;;8.50;7.70;;;12.40;99.90;;;;;;5034117;28;20610;-59
2022/09/12 04:12:43;;;;;;;8.53;7.73;;;12.40;99.90;;;;;;5034070;28;20236;-60
2022/09/12 04:15:10;;;;;;;9.20;8.03;;;12.40;99.90;;;;;;5034045;28;20206;-58
2022/09/12 04:17:37;;;;;;;9.00;7.73;;;12.30;99.90;;;;;;5034041;28;20238;-59
2022/09/12 04:20:04;;;;;;;9.10;7.17;;;12.30;99.90;;;;;;5034045;28;20213;-58
2022/09/12 04:22:32;;;;;;;9.17;7.60;;;12.30;99.90;;;;;;5033919;28;20202;-59
2022/09/12 04:25:00;;;;;;;8.43;7.50;;;12.30;99.90;;;;;;5033717;28;20284;-59
2022/09/12 04:27:26;;;;;;;9.10;7.67;;;12.30;99.90;;;;;;5033508;28;20304;-56
2022/09/12 04:29:54;;;;;;;8.90;6.87;;;12.30;99.90;;;;;;5034102;28;20236;-55
2022/09/12 04:32:21;;;;;;;9.13;7.50;;;12.30;99.90;;;;;;5034062;28;20583;-56
2022/09/12 04:34:47;;;;;;;7.77;7.00;;;12.30;99.90;;;;;;5033439;28;20587;-56
2022/09/12 04:37:14;;;;;;;8.40;7.00;;;12.20;99.90;;;;;;5033545;28;20230;-57
2022/09/12 04:39:41;;;;;;;13.10;6.87;;;12.20;99.90;;;;;;5033342;28;20206;-56
2022/09/12 04:42:09;;;;;;;11.10;7.03;;;12.30;99.90;;;;;;5033759;28;20293;-55
2022/09/12 04:44:36;;;;;;;7.80;7.10;;;12.30;99.90;;;;;;5033466;28;20210;-55
2022/09/12 04:47:03;;;;;;;8.37;6.73;;;12.30;99.90;;;;;;5033414;28;20594;-57
2022/09/12 04:49:29;;;;;;;7.77;6.93;;;12.30;99.90;;;;;;5033380;28;20206;-56
2022/09/12 04:51:56;;;;;;;9.30;7.43;;;12.30;99.90;;;;;;5033416;28;20207;-55
2022/09/12 04:54:23;;;;;;;9.40;6.73;;;12.30;99.90;;;;;;5032737;28;20206;-57
2022/09/12 04:56:51;;;;;;;7.73;6.43;;;12.20;99.90;;;;;;5033175;28;20608;-56
2022/09/12 04:59:21;;;;;;;8.37;6.63;;;12.20;99.90;;;;;;5033198;28;20211;-55
2022/09/12 05:01:48;;;;;;;8.83;6.07;;;12.20;99.90;;;;;;5033149;28;20206;-56
2022/09/12 05:04:15;;;;;;;9.07;6.00;;;12.20;99.90;;;;;;5032813;28;20724;-56
2022/09/12 05:06:42;;;;;;;9.20;6.93;;;12.20;99.90;;;;;;5032913;28;20710;-56
2022/09/12 05:09:12;;;;;;;8.57;6.13;;;12.30;99.90;;;;;;5032873;28;20622;-55
2022/09/12 05:11:41;;;;;;;9.80;6.90;;;12.30;99.90;;;;;;5032877;28;20242;-55
2022/09/12 05:14:08;;;;;;;7.73;6.30;;;12.30;99.90;;;;;;5032895;28;20237;-56
2022/09/12 05:16:36;;;;;;;7.43;6.73;;;12.40;99.90;;;;;;5032579;28;20698;-56
2022/09/12 05:19:03;;;;;;;7.93;6.27;;;12.40;99.90;;;;;;5032775;28;20260;-56
2022/09/12 05:21:30;;;;;;;6.93;6.13;;;12.40;99.90;;;;;;5032646;28;20237;-56
2022/09/12 05:23:58;;;;;;;7.97;6.57;;;12.50;99.90;;;;;;5032623;28;20284;-55
2022/09/12 05:26:25;;;;;;;8.47;7.67;;;12.50;99.90;;;;;;5032376;28;20234;-55
2022/09/12 05:28:53;;;;;;;8.43;7.63;;;12.60;99.90;;;;;;5032717;28;20257;-56
2022/09/12 05:31:21;;;;;;;9.60;7.60;;;12.60;99.90;;;;;;5032651;28;20210;-55
2022/09/12 05:33:51;;;;;;;9.87;7.47;;;12.70;99.90;;;;;;5032065;28;20629;-55
2022/09/12 05:36:19;;;;;;;11.13;7.70;;;12.70;99.90;;;;;;5032503;28;20239;-56
2022/09/12 05:38:46;;;;;;;9.90;7.07;;;12.70;99.90;;;;;;5031582;28;20229;-56
2022/09/12 05:41:16;;;;;;;8.13;7.40;;;12.80;99.90;;;;;;5032194;28;20883;-55
2022/09/12 05:43:44;;;;;;;8.07;7.27;;;12.80;99.90;;;;;;5032018;28;20206;-55
2022/09/12 05:46:14;;;;;;;9.10;7.63;;;12.80;99.90;;;;;;5031932;28;20242;-55
2022/09/12 05:48:42;;;;;;;9.13;6.97;;;12.90;99.90;;;;;;5032497;28;20252;-55
2022/09/12 05:51:12;;;;;;;8.73;7.83;;;13.00;99.90;;;;;;5032334;28;20296;-54
2022/09/12 05:53:40;;;;;;;9.13;7.03;;;13.10;99.90;;;;;;5032208;28;20597;-55
2022/09/12 05:56:09;;;;;;;7.57;6.80;;;13.60;99.90;;;;;;5031790;28;20309;-55
2022/09/12 05:58:38;;;;;;;6.87;5.87;;;14.80;99.90;;;;;;5031954;28;20244;-56
2022/09/12 06:01:07;;;;;;;8.93;5.23;;;16.20;99.90;;;;;;5032015;28;20670;-55
2022/09/12 06:03:34;;;;;;;5.55;4.50;;;17.50;99.90;;;;;;5031622;28;20670;-55
2022/09/12 06:06:05;;;;;;;7.00;4.68;;;18.60;99.90;;;;;;5031991;28;20227;-55
2022/09/12 06:08:35;;;;;;;4.20;3.80;;;19.50;99.90;;;;;;5032087;28;20456;-55
2022/09/12 06:11:03;;;;;;;4.20;3.80;;;20.60;99.90;;;;;;5032124;28;20633;-55
2022/09/12 06:13:31;;;;;;;4.25;3.85;;;21.70;99.90;;;;;;5031364;28;20256;-56
2022/09/12 06:16:03;;;;;;;4.03;3.58;;;22.70;99.90;;;;;;5031853;28;20276;-56
2022/09/12 06:18:29;;;;;;;4.65;4.05;;;23.60;99.90;;;;;;5031585;28;20717;-56
2022/09/12 06:20:56;;;;;;;4.70;3.97;;;24.30;99.90;;;;;;5031520;28;20268;-55
2022/09/12 06:23:22;;;;;;;3.92;3.63;;;25.00;99.90;;;;;;5031321;28;20206;-59
2022/09/12 06:25:50;;;;;;;4.93;3.75;;;25.70;99.90;;;;;;5028955;28;20698;-55
2022/09/12 06:28:18;;;;;;;4.60;3.40;;;26.20;99.90;;;;;;5036053;28;20323;-54
2022/09/12 06:30:45;;;;;;;5.95;3.95;;;26.70;99.20;;;;;;5050622;28;20760;-54
2022/09/12 06:33:12;;;;;;;4.13;3.50;;;27.00;97.90;;;;;;5050183;28;20216;-56
2022/09/12 06:35:39;;;;;;;5.00;3.50;;;27.50;97.40;;;;;;5050114;28;20681;-56
2022/09/12 06:38:05;;;;;;;4.78;3.72;;;28.10;95.90;;;;;;5050102;28;20644;-54
2022/09/12 06:40:33;;;;;;;6.80;6.10;;;28.60;93.20;;;;;;5051437;28;20217;-56
2022/09/12 06:43:01;;;;;;;5.05;3.88;;;29.00;93.00;;;;;;5051421;28;20606;-56
2022/09/12 06:45:28;;;;;;;8.30;3.85;;;29.60;91.10;;;;;;5051333;28;20278;-56
2022/09/12 06:47:55;;;;;;;4.93;3.50;;;30.10;89.80;;;;;;5051585;28;20229;-56
2022/09/12 06:50:22;;;;;;;6.05;3.20;;;30.70;86.90;;;;;;5053367;28;20289;-56
2022/09/12 06:52:49;;;;;;;3.88;3.50;;;31.20;83.80;;;;;;5055417;28;20580;-55
2022/09/12 06:55:16;;;;;;;4.53;3.22;;;31.50;80.40;;;;;;5055419;28;20210;-56
2022/09/12 06:57:43;;;;;;;3.60;3.30;;;31.40;80.60;;;;;;5055338;28;20279;-55
2022/09/12 07:00:13;;;;;;;3.88;3.20;;;31.80;78.80;;;;;;5055195;28;20250;-56
2022/09/12 07:02:39;;;;;;;4.03;3.60;;;32.10;77.40;;;;;;5055357;28;20213;-57
2022/09/12 07:05:07;;;;;;;3.58;3.28;;;32.70;74.60;;;;;;5055039;28;20205;-56
2022/09/12 07:07:34;;;;;;;3.97;3.45;;;33.00;72.50;;;;;;5055086;28;20308;-57
2022/09/12 07:10:01;;;;;;;3.95;3.53;;;33.40;71.30;;;;;;5055214;28;20662;-56
2022/09/12 07:12:28;;;;;;;3.75;3.35;;;33.70;71.00;;;;;;5055465;28;20214;-56
2022/09/12 07:14:55;;;;;;;7.82;3.70;;;34.00;68.80;;;;;;5055240;28;20594;-55
2022/09/12 07:17:23;;;;;;;3.90;3.05;;;34.30;66.50;;;;;;5054934;28;20232;-59
2022/09/12 07:19:49;;;;;;;3.30;3.00;;;34.60;65.00;;;;;;5054782;28;20274;-54
2022/09/12 07:22:16;;;;;;;4.18;2.90;;;34.50;64.20;;;;;;5033811;28;20206;-55
2022/09/12 07:24:44;;;;;;;4.45;3.08;;;34.50;64.10;;;;;;5053639;28;20263;-54
2022/09/12 07:27:11;;;;;;;5.20;3.33;;;34.40;64.30;;;;;;5053487;28;20237;-54
2022/09/12 07:29:38;;;;;;;3.38;3.08;;;34.50;63.90;;;;;;5053464;28;20677;-54
2022/09/12 07:32:05;;;;;;;5.78;3.10;;;34.60;63.50;;;;;;5053729;28;20692;-56
2022/09/12 07:34:33;;;;;;;3.85;3.08;;;34.70;63.40;;;;;;5053256;28;20209;-54
2022/09/12 07:37:00;;;;;;;4.13;3.20;;;34.90;61.70;;;;;;5053617;28;20233;-54
2022/09/12 07:39:27;;;;;;;3.70;2.95;;;34.80;61.50;;;;;;5053294;28;20701;-55
2022/09/12 07:41:53;;;;;;;4.30;3.20;;;34.80;61.50;;;;;;5053577;28;20654;-57
2022/09/12 07:44:21;;;;;;;6.90;3.95;;;35.00;61.20;;;;;;5053178;28;20673;-57
2022/09/12 07:46:47;;;;;;;5.20;4.32;;;35.40;60.90;;;;;;5053399;28;20396;-57
2022/09/12 07:49:14;;;;;;;8.57;4.13;;;35.90;60.20;;;;;;5053210;28;20206;-58
2022/09/12 07:51:42;;;;;;;5.45;3.72;;;35.80;59.90;;;;;;5053341;28;20213;-56
2022/09/12 07:54:09;;;;;;;7.43;4.38;;;35.50;60.50;;;;;;5053194;28;20217;-56
2022/09/12 07:56:36;;;;;;;4.55;3.80;;;35.00;60.50;;;;;;5053344;28;20225;-56
2022/09/12 07:59:03;;;;;;;4.43;3.75;;;34.30;61.30;;;;;;5053130;28;20701;-57
2022/09/12 08:01:29;;;;;;;4.43;3.97;;;33.30;63.60;;;;;;5052385;28;20263;-56
2022/09/12 08:03:58;;;;;;;6.07;4.35;;;31.90;65.90;;;;;;5052479;28;20210;-59
2022/09/12 08:06:29;;;;;;;4.70;4.30;;;30.30;70.50;;;;;;5053358;28;20271;-56
2022/09/12 08:08:58;;;;;;;5.63;4.20;;;28.80;75.00;;;;;;5053406;28;20239;-56
2022/09/12 08:11:26;;;;;;;5.65;3.88;;;27.60;78.30;;;;;;5053311;28;20206;-55
2022/09/12 08:13:55;;;;;;;4.45;4.05;;;26.50;82.50;;;;;;5052641;28;20647;-55
2022/09/12 08:16:25;;;;;;;5.20;4.68;;;25.60;85.80;;;;;;5052594;28;20332;-55
2022/09/12 08:18:52;;;;;;;5.32;4.13;;;24.90;89.40;;;;;;5053096;28;20283;-55
2022/09/12 08:21:20;;;;;;;6.00;4.55;;;23.90;91.80;;;;;;5053144;28;20267;-55
2022/09/12 08:23:51;;;;;;;6.00;4.07;;;23.40;93.40;;;;;;5052683;28;20217;-58
2022/09/12 08:26:19;;;;;;;5.63;4.45;;;23.10;94.70;;;;;;5052651;28;20229;-59
2022/09/12 08:28:46;;;;;;;5.38;4.68;;;22.90;95.80;;;;;;5052469;28;20205;-58
2022/09/12 08:31:15;;;;;;;5.18;4.43;;;22.70;96.90;;;;;;5052680;28;20687;-57
2022/09/12 08:33:42;;;;;;;5.00;4.30;;;22.60;97.90;;;;;;5038748;28;20233;-57
2022/09/12 08:36:11;;;;;;;4.75;4.35;;;22.30;99.10;;;;;;5032819;28;20210;-57
2022/09/12 08:38:39;;;;;;;5.45;4.40;;;21.90;99.90;;;;;;5031606;28;20221;-58
2022/09/12 08:41:14;;;;;;;6.07;5.20;;;21.70;99.90;;;;;;5032666;28;20260;-57
2022/09/12 08:43:59;;;;;;;4.00;3.60;;;21.70;99.90;;;;;;5032285;28;20348;-57
2022/09/12 08:46:33;;;;;;;3.50;3.20;;;21.80;99.90;;;;;;5032460;28;20233;-57
2022/09/12 08:49:02;;;;;;;4.20;3.80;;;21.70;99.90;;;;;;5032348;28;20210;-56
2022/09/12 08:51:31;;;;;;;4.97;2.88;;;21.70;99.90;;;;;;5031839;28;20705;-56
2022/09/12 08:53:58;;;;;;;3.53;2.70;;;21.70;99.90;;;;;;5026084;28;20219;-56
2022/09/12 08:56:28;;;;;;;2.85;2.65;;;21.60;99.90;;;;;;5032224;28;20221;-56
2022/09/12 08:58:57;;;;;;;2.97;2.67;;;21.50;99.90;;;;;;5030640;28;20679;-52
2022/09/12 09:01:30;;;;;;;3.72;3.15;;;21.50;99.90;;;;;;5032212;28;20225;-57
2022/09/12 09:04:13;;;;;;;3.83;2.50;;;21.60;99.90;;;;;;5030093;28;20210;-56
2022/09/12 09:07:06;;;;;;;3.30;2.75;;;21.70;99.90;;;;;;5031515;28;20284;-56
2022/09/12 09:09:44;;;;;;;3.25;2.80;;;21.80;99.90;;;;;;5031543;28;20569;-56
2022/09/12 09:12:20;;;;;;;2.70;2.40;;;22.00;99.90;;;;;;5032006;28;20252;-56
2022/09/12 09:15:08;;;;;;;2.67;2.38;;;22.20;99.90;;;;;;5029854;28;20232;-55
2022/09/12 09:17:40;;;;;;;5.88;2.30;;;22.30;99.90;;;;;;5030744;28;20553;-54
2022/09/12 09:20:17;;;;;;;2.45;2.25;;;22.30;99.90;;;;;;5031133;28;20226;-54
2022/09/12 09:22:47;;;;;;;2.58;2.33;;;22.30;99.90;;;;;;5031513;28;20209;-56
2022/09/12 09:25:19;;;;;;;2.40;2.20;;;22.30;99.90;;;;;;5031188;28;20264;-58
2022/09/12 09:27:51;;;;;;;2.55;2.20;;;22.40;99.90;;;;;;5031250;28;20664;-58
2022/09/12 09:30:21;;;;;;;2.45;2.00;;;22.40;99.90;;;;;;5031702;28;20234;-56
2022/09/12 09:32:52;;;;;;;3.17;1.80;;;22.40;99.90;;;;;;5032130;28;20297;-55
2022/09/12 09:35:26;;;;;;;2.00;1.80;;;22.50;99.90;;;;;;5032374;28;20210;-54
2022/09/12 09:38:04;;;;;;;2.00;1.75;;;22.60;99.80;;;;;;5032432;28;20234;-55
2022/09/12 09:40:45;;;;;;;2.50;1.85;;;22.60;99.30;;;;;;5032756;28;20271;-54
2022/09/12 09:43:18;;;;;;;2.00;1.80;;;22.70;99.60;;;;;;5032596;28;20301;-55
2022/09/12 09:45:46;;;;;;;1.83;1.70;;;22.80;98.80;;;;;;5032001;28;20250;-55
2022/09/12 09:48:18;;;;;;;2.40;1.70;;;22.90;98.10;;;;;;5032303;28;20304;-55
2022/09/12 09:50:47;;;;;;;1.98;1.67;;;23.00;96.30;;;;;;5032145;28;20592;-55
2022/09/12 09:53:28;;;;;;;2.05;1.80;;;23.10;96.00;;;;;;5032558;28;20210;-55
2022/09/12 09:55:56;;;;;;;2.65;2.13;;;23.00;97.60;;;;;;5031954;28;20564;-55
2022/09/12 09:58:34;;;;;;;2.40;2.03;;;23.00;97.30;;;;;;5032001;28;20222;-55
2022/09/12 10:01:04;;;;;;;1.88;1.70;;;23.10;96.70;;;;;;5032620;28;20206;-55
2022/09/12 10:03:33;;;;;;;1.70;1.52;;;23.10;96.30;;;;;;5033150;28;20272;-55
2022/09/12 10:06:02;;;;;;;4.30;2.00;;;23.10;96.90;;;;;;5032843;28;20256;-55
2022/09/12 10:08:30;;;;;;;2.15;1.60;;;23.10;96.70;;;;;;5032256;28;20210;-54
2022/09/12 10:11:00;;;;;;;2.83;1.70;;;23.40;96.20;;;;;;5032055;28;20297;-54
2022/09/12 10:13:40;;;;;;;2.03;1.70;;;23.60;95.60;;;;;;5032523;28;20293;-56
2022/09/12 10:16:19;;;;;;;1.70;1.60;;;23.70;94.50;;;;;;5031495;28;20737;-57
2022/09/12 10:18:46;;;;;;;2.10;1.65;;;23.70;94.30;;;;;;5031810;28;20230;-55
2022/09/12 10:21:16;;;;;;;1.92;1.75;;;23.80;94.60;;;;;;5031742;28;20252;-55
2022/09/12 10:23:44;;;;;;;1.80;1.70;;;23.90;94.90;;;;;;5031870;28;20205;-57
2022/09/12 10:26:13;;;;;;;1.77;1.55;;;24.00;95.20;;;;;;5031366;28;20202;-57
2022/09/12 10:28:42;;;;;;;3.45;1.73;;;24.20;94.10;;;;;;5032456;28;20256;-59
2022/09/12 10:31:15;;;;;;;2.03;1.85;;;24.20;94.10;;;;;;5031613;28;20206;-59
2022/09/12 10:33:45;;;;;;;1.95;1.70;;;24.30;94.00;;;;;;5031714;28;20236;-59
2022/09/12 10:36:13;;;;;;;2.53;1.52;;;24.40;93.60;;;;;;5031570;28;20589;-59
2022/09/12 10:38:49;;;;;;;1.48;1.38;;;24.50;93.40;;;;;;5031598;28;20230;-58
2022/09/12 10:41:16;;;;;;;2.15;1.90;;;24.60;93.00;;;;;;5031745;28;20654;-59
2022/09/12 10:43:42;;;;;;;1.80;1.60;;;24.60;92.70;;;;;;5031640;28;20209;-60
2022/09/12 10:46:29;;;;;;;2.22;1.80;;;24.70;92.50;;;;;;5031126;28;20624;-59
2022/09/12 10:49:25;;;;;;;1.50;1.40;;;24.80;92.30;;;;;;5031694;28;20235;-60
2022/09/12 10:51:53;;;;;;;1.67;1.48;;;25.00;91.70;;;;;;5031471;28;20280;-60
2022/09/12 10:54:22;;;;;;;1.70;1.60;;;25.20;91.50;;;;;;5031244;28;20206;-60
2022/09/12 10:57:06;;;;;;;1.85;1.75;;;25.30;91.30;;;;;;5031304;28;20228;-60
2022/09/12 10:59:50;;;;;;;1.90;1.73;;;25.50;91.40;;;;;;5031403;28;20713;-59
2022/09/12 11:02:27;;;;;;;1.65;1.55;;;25.70;90.90;;;;;;5031267;28;20302;-60
2022/09/12 11:05:02;;;;;;;1.70;1.60;;;25.90;90.10;;;;;;5031242;28;20213;-59
2022/09/12 11:07:43;;;;;;;1.60;1.50;;;26.00;90.00;;;;;;5031623;28;20230;-59
2022/09/12 11:10:31;;;;;;;1.75;1.20;;;26.30;88.70;;;;;;5031578;28;20205;-60
2022/09/12 11:13:09;;;;;;;1.73;1.50;;;26.40;86.50;;;;;;5031511;28;20306;-59
2022/09/12 11:15:50;;;;;;;1.67;1.58;;;26.30;85.90;;;;;;5031047;28;20213;-60
2022/09/12 11:18:39;;;;;;;1.52;1.42;;;26.20;86.90;;;;;;5031221;28;20226;-60
2022/09/12 11:21:20;;;;;;;1.50;1.40;;;26.30;85.60;;;;;;5031711;28;20233;-60
2022/09/12 11:24:09;;;;;;;1.58;1.48;;;26.50;84.80;;;;;;5031100;28;20272;-59
2022/09/12 11:26:53;;;;;;;1.73;1.50;;;26.70;84.80;;;;;;5027548;28;20237;-60
2022/09/12 11:29:36;;;;;;;2.65;1.80;;;26.90;84.90;;;;;;5031349;28;20603;-60
2022/09/12 11:32:19;;;;;;;1.80;1.60;;;26.80;84.70;;;;;;5031387;28;20236;-59
2022/09/12 11:34:55;;;;;;;1.75;1.35;;;26.80;85.30;;;;;;5031215;28;20256;-59
2022/09/12 11:37:36;;;;;;;1.58;1.33;;;27.00;83.90;;;;;;5032740;28;20860;-59
2022/09/12 11:40:24;;;;;;;2.13;1.40;;;27.10;81.90;;;;;;5034776;28;20229;-59
2022/09/12 11:42:54;;;;;;;1.70;1.60;;;27.10;82.30;;;;;;5034939;28;20195;-61
2022/09/12 11:45:26;;;;;;;1.52;1.30;;;26.90;83.20;;;;;;5034815;28;20209;-61
2022/09/12 11:47:57;;;;;;;1.58;1.40;;;27.00;81.40;;;;;;5034545;28;20752;-60
2022/09/12 11:50:29;;;;;;;1.38;1.10;;;26.90;81.80;;;;;;5034721;28;20256;-59
2022/09/12 11:53:00;;;;;;;1.60;1.45;;;27.00;81.40;;;;;;5034330;28;20213;-61
2022/09/12 11:55:32;;;;;;;2.17;1.38;;;26.80;82.40;;;;;;5034715;28;20297;-59
2022/09/12 11:57:59;;;;;;;2.55;1.55;;;26.80;81.90;;;;;;5034707;28;20261;-60
2022/09/12 12:00:31;;;;;;;3.05;1.42;;;26.60;81.90;;;;;;5034608;28;20226;-58
2022/09/12 12:03:04;;;;;;;1.67;1.33;;;26.50;80.30;;;;;;5034639;28;20214;-59
2022/09/12 12:05:39;;;;;;;1.30;1.20;;;26.60;79.70;;;;;;5034236;28;20213;-60
2022/09/12 12:08:08;;;;;;;1.30;1.20;;;26.70;78.70;;;;;;5034423;28;20229;-60
2022/09/12 12:10:37;;;;;;;3.25;1.30;;;26.80;77.80;;;;;;5029930;28;20225;-58
2022/09/12 12:13:08;;;;;;;1.58;1.35;;;26.80;77.80;;;;;;5046365;28;20688;-57
2022/09/12 12:15:36;;;;;;;1.45;1.20;;;26.90;76.20;;;;;;5053298;28;20206;-59
2022/09/12 12:18:07;;;;;;;1.88;1.25;;;26.70;75.80;;;;;;5052581;28;20796;-56
2022/09/12 12:20:35;;;;;;;1.08;1.00;;;26.60;75.70;;;;;;5053163;28;20225;-57
2022/09/12 12:23:03;;;;;;;2.83;1.30;;;26.60;75.40;;;;;;5052997;28;20229;-56
2022/09/12 12:25:50;;;;;;;1.67;0.93;;;26.60;75.40;;;;;;5052808;28;20697;-58
2022/09/12 12:29:08;;;;;;;1.30;1.00;;;26.70;74.70;;;;;;5052792;28;20233;-57
2022/09/12 12:32:11;;;;;;;1.33;1.00;;;26.90;72.90;;;;;;5010227;28;20203;-62
2022/09/12 12:34:40;;;;;;;1.42;1.20;;;26.90;73.50;;;;;;5050630;28;20209;-61
2022/09/12 12:37:41;;;;;;;2.08;1.20;;;26.90;73.20;;;;;;5052895;28;20229;-61
2022/09/12 12:40:09;;;;;;;1.30;1.20;;;26.70;73.00;;;;;;5052699;28;20276;-63
2022/09/12 12:43:30;;;;;;;2.08;1.55;;;26.70;73.30;;;;;;5052925;28;20263;-61
2022/09/12 12:46:11;;;;;;;2.53;1.33;;;26.80;73.20;;;;;;5050767;28;20210;-58
2022/09/12 12:48:49;;;;;;;1.30;1.20;;;26.90;72.20;;;;;;5026300;28;20292;-59
2022/09/12 12:51:56;;;;;;;1.95;1.13;;;26.90;72.40;;;;;;5032162;28;20268;-59
2022/09/12 12:54:48;;;;;;;1.15;1.05;;;26.90;72.80;;;;;;5032463;28;20257;-62
2022/09/12 12:57:27;;;;;;;1.30;1.20;;;26.90;73.20;;;;;;5032459;28;20233;-62
2022/09/12 12:59:57;;;;;;;1.35;1.20;;;27.00;72.60;;;;;;5032456;28;20234;-58
2022/09/12 13:02:30;;;;;;;1.38;1.00;;;27.00;72.70;;;;;;5032544;28;20206;-59
2022/09/12 13:04:59;;;;;;;1.88;1.20;;;27.00;72.30;;;;;;5032491;28;20206;-59
2022/09/12 13:07:32;;;;;;;1.38;1.10;;;27.00;72.60;;;;;;5031927;28;20226;-60
2022/09/12 13:10:01;;;;;;;0.93;0.88;;;27.10;72.30;;;;;;5032381;28;20210;-61